Time;durP1;ratioP1;P1;durP2;ratioP2;P2;SDS_P1;SDS_P2;PMS_P1;PMS_P2;Temp;Humidity;BMP_temperature;BMP_pressure;BME280_temperature;BME280_humidity;BME280_pressure;Samples;Min_cycle;Max_cycle;Signal;HPM_P1;HPM_P2
2023/06/06 00:01:51;;;;;;;7.45;4.45;;;14.30;99.90;;;;;;5005868;28;20185;-82
2023/06/06 00:04:17;;;;;;;4.85;3.53;;;14.30;99.90;;;;;;5009060;28;20232;-83
2023/06/06 00:06:44;;;;;;;4.43;3.75;;;14.30;99.90;;;;;;5008348;28;20188;-82
2023/06/06 00:09:10;;;;;;;6.00;3.90;;;14.10;99.90;;;;;;5019184;28;20200;-82
2023/06/06 00:11:39;;;;;;;6.07;3.67;;;14.10;99.90;;;;;;5010910;28;20184;-82
2023/06/06 00:14:08;;;;;;;5.00;3.90;;;13.90;99.90;;;;;;5001632;28;20200;-81
2023/06/06 00:16:34;;;;;;;4.38;3.63;;;13.90;99.90;;;;;;4999126;28;20191;-80
2023/06/06 00:19:03;;;;;;;4.80;4.10;;;13.80;99.90;;;;;;5000240;28;20200;-80
2023/06/06 00:21:32;;;;;;;7.13;4.53;;;13.70;99.90;;;;;;4999672;28;20232;-81
2023/06/06 00:23:59;;;;;;;10.20;5.10;;;13.60;99.90;;;;;;4997799;28;20283;-80
2023/06/06 00:26:26;;;;;;;7.40;4.18;;;13.60;99.90;;;;;;4997901;28;20180;-81
2023/06/06 00:28:53;;;;;;;6.90;4.95;;;13.50;99.90;;;;;;4999232;28;20173;-80
2023/06/06 00:31:19;;;;;;;5.05;4.03;;;13.50;99.90;;;;;;4998024;28;20191;-80
2023/06/06 00:33:45;;;;;;;5.65;4.50;;;13.30;99.90;;;;;;4997715;28;20263;-81
2023/06/06 00:36:11;;;;;;;5.53;4.18;;;13.30;99.90;;;;;;4998799;28;20666;-81
2023/06/06 00:38:37;;;;;;;5.28;4.13;;;13.40;99.90;;;;;;4998619;28;20605;-80
2023/06/06 00:41:03;;;;;;;6.60;4.60;;;13.40;99.90;;;;;;4998826;28;20164;-80
2023/06/06 00:43:28;;;;;;;7.25;4.20;;;13.40;99.90;;;;;;4998261;28;20193;-80
2023/06/06 00:45:55;;;;;;;4.47;3.90;;;13.40;99.90;;;;;;4997700;28;20207;-80
2023/06/06 00:48:23;;;;;;;6.40;4.20;;;13.30;99.90;;;;;;4997440;28;20224;-80
2023/06/06 00:50:50;;;;;;;5.38;4.25;;;13.20;99.90;;;;;;5000203;28;20232;-81
2023/06/06 00:53:16;;;;;;;4.97;4.47;;;13.20;99.90;;;;;;5002578;28;20192;-81
2023/06/06 00:55:43;;;;;;;5.40;4.28;;;13.10;99.90;;;;;;5002965;28;20180;-80
2023/06/06 00:58:11;;;;;;;5.75;3.90;;;13.10;99.90;;;;;;5002030;28;20176;-81
2023/06/06 01:00:39;;;;;;;4.80;4.07;;;13.00;99.90;;;;;;5002618;28;20200;-80
2023/06/06 01:03:09;;;;;;;9.30;4.82;;;12.90;99.90;;;;;;5002219;28;20620;-84
2023/06/06 01:05:39;;;;;;;5.35;4.05;;;12.90;99.90;;;;;;5004859;28;20176;-82
2023/06/06 01:08:05;;;;;;;4.78;4.10;;;12.80;99.90;;;;;;5002913;28;20279;-83
2023/06/06 01:10:36;;;;;;;5.35;4.03;;;12.80;99.90;;;;;;5005337;28;20164;-83
2023/06/06 01:13:38;;;;;;;5.85;4.40;;;12.80;99.90;;;;;;5004435;28;20200;-82
2023/06/06 01:16:13;;;;;;;6.25;4.45;;;12.70;99.90;;;;;;5005757;28;20188;-82
2023/06/06 01:18:41;;;;;;;6.38;4.28;;;12.70;99.90;;;;;;5004330;28;20192;-83
2023/06/06 01:21:08;;;;;;;7.00;4.25;;;12.80;99.90;;;;;;5006362;28;20232;-82
2023/06/06 01:23:36;;;;;;;6.78;4.65;;;12.80;99.90;;;;;;5004552;28;20204;-82
2023/06/06 01:26:05;;;;;;;8.43;4.90;;;12.80;99.90;;;;;;5004623;28;20185;-82
2023/06/06 01:28:32;;;;;;;4.70;4.20;;;12.80;99.90;;;;;;5003294;28;20177;-82
2023/06/06 01:30:58;;;;;;;5.93;4.90;;;12.80;99.90;;;;;;4998772;28;20176;-81
2023/06/06 01:33:44;;;;;;;7.57;4.43;;;12.70;99.90;;;;;;4999834;28;20189;-82
2023/06/06 01:36:27;;;;;;;6.60;4.38;;;12.70;99.90;;;;;;4999292;28;20220;-81
2023/06/06 01:39:07;;;;;;;6.70;4.80;;;12.60;99.90;;;;;;4999946;28;20196;-82
2023/06/06 01:41:37;;;;;;;8.32;4.78;;;12.50;99.90;;;;;;5000682;28;20160;-82
2023/06/06 01:44:06;;;;;;;8.63;4.32;;;12.50;99.90;;;;;;5001114;28;20193;-82
2023/06/06 01:46:33;;;;;;;9.32;5.18;;;12.50;99.90;;;;;;5000245;28;20313;-81
2023/06/06 01:48:59;;;;;;;5.03;4.28;;;12.50;99.90;;;;;;5003675;28;20173;-80
2023/06/06 01:51:27;;;;;;;5.93;4.65;;;12.50;99.90;;;;;;5005537;28;20188;-80
2023/06/06 01:53:57;;;;;;;7.00;4.65;;;12.60;99.90;;;;;;5006053;28;20219;-80
2023/06/06 01:56:23;;;;;;;6.85;4.95;;;12.50;99.90;;;;;;5007297;28;20554;-79
2023/06/06 01:58:49;;;;;;;8.00;5.28;;;12.50;99.90;;;;;;5006974;28;20240;-80
2023/06/06 02:01:15;;;;;;;5.63;4.45;;;12.50;99.90;;;;;;5007471;28;20291;-80
2023/06/06 02:03:41;;;;;;;6.95;4.60;;;12.50;99.90;;;;;;5006952;28;20208;-79
2023/06/06 02:06:07;;;;;;;5.82;4.50;;;12.50;99.90;;;;;;5006868;28;20211;-80
2023/06/06 02:08:33;;;;;;;10.25;5.10;;;12.50;99.90;;;;;;5008872;28;20574;-80
2023/06/06 02:10:59;;;;;;;5.50;4.70;;;12.50;99.90;;;;;;5009731;28;20187;-80
2023/06/06 02:13:26;;;;;;;7.75;5.05;;;12.50;99.90;;;;;;5009661;28;20255;-80
2023/06/06 02:15:52;;;;;;;6.60;4.75;;;12.40;99.90;;;;;;5009467;28;20223;-80
2023/06/06 02:18:17;;;;;;;7.72;5.05;;;12.30;99.90;;;;;;5008975;28;20259;-80
2023/06/06 02:20:43;;;;;;;5.40;4.32;;;12.40;99.90;;;;;;5008749;28;20630;-80
2023/06/06 02:23:09;;;;;;;5.45;4.75;;;12.40;99.90;;;;;;5008293;28;20196;-80
2023/06/06 02:25:37;;;;;;;6.75;4.85;;;12.30;99.90;;;;;;5007139;28;20200;-80
2023/06/06 02:28:04;;;;;;;5.82;4.68;;;12.20;99.90;;;;;;5007878;28;20178;-80
2023/06/06 02:30:30;;;;;;;7.30;5.32;;;12.20;99.90;;;;;;5009867;28;20180;-80
2023/06/06 02:32:56;;;;;;;6.32;4.53;;;12.20;99.90;;;;;;5007548;28;20224;-80
2023/06/06 02:35:22;;;;;;;6.43;4.55;;;12.20;99.90;;;;;;5007456;28;20176;-81
2023/06/06 02:37:48;;;;;;;7.40;4.53;;;12.20;99.90;;;;;;5009477;28;20176;-80
2023/06/06 02:40:14;;;;;;;6.38;4.82;;;12.30;99.90;;;;;;5008282;28;20210;-80
2023/06/06 02:42:39;;;;;;;7.05;5.25;;;12.30;99.90;;;;;;5007111;28;20254;-80
2023/06/06 02:45:07;;;;;;;5.68;4.72;;;12.30;99.90;;;;;;5006715;28;20219;-80
2023/06/06 02:47:33;;;;;;;8.45;4.80;;;12.20;99.90;;;;;;5005527;28;20172;-80
2023/06/06 02:49:59;;;;;;;6.78;5.32;;;12.10;99.90;;;;;;5004854;28;20183;-81
2023/06/06 02:52:25;;;;;;;8.77;5.10;;;12.10;99.90;;;;;;5004707;28;20208;-80
2023/06/06 02:54:51;;;;;;;6.32;5.10;;;12.10;99.90;;;;;;5005651;28;20179;-80
2023/06/06 02:57:17;;;;;;;6.50;4.93;;;12.00;99.90;;;;;;5004745;28;20208;-80
2023/06/06 02:59:43;;;;;;;6.68;5.22;;;11.90;99.90;;;;;;5003995;28;20204;-80
2023/06/06 03:02:10;;;;;;;6.40;4.53;;;11.90;99.90;;;;;;5002729;28;20263;-80
2023/06/06 03:04:35;;;;;;;9.20;5.13;;;12.00;99.90;;;;;;5002053;28;20176;-80
2023/06/06 03:07:03;;;;;;;8.10;4.95;;;12.00;99.90;;;;;;5000457;28;20295;-80
2023/06/06 03:09:29;;;;;;;6.30;5.38;;;11.90;99.90;;;;;;5000406;28;20180;-80
2023/06/06 03:11:55;;;;;;;8.38;5.45;;;11.90;99.90;;;;;;4998649;28;20188;-81
2023/06/06 03:14:20;;;;;;;8.85;5.40;;;11.80;99.90;;;;;;4998095;28;20654;-80
2023/06/06 03:16:51;;;;;;;7.68;5.40;;;11.80;99.90;;;;;;4996639;28;20275;-80
2023/06/06 03:19:17;;;;;;;7.57;5.25;;;11.70;99.90;;;;;;5003536;28;20200;-82
2023/06/06 03:21:43;;;;;;;11.13;6.28;;;11.60;99.90;;;;;;5001675;28;20524;-81
2023/06/06 03:24:09;;;;;;;7.57;5.72;;;11.60;99.90;;;;;;5000551;28;20287;-82
2023/06/06 03:26:36;;;;;;;10.32;6.47;;;11.70;99.90;;;;;;5001794;28;20561;-82
2023/06/06 03:29:02;;;;;;;8.13;6.00;;;11.80;99.90;;;;;;5001507;28;20199;-82
2023/06/06 03:31:29;;;;;;;10.50;6.70;;;11.80;99.90;;;;;;5000475;28;20181;-82
2023/06/06 03:33:55;;;;;;;7.90;6.10;;;11.70;99.90;;;;;;5001215;28;20677;-82
2023/06/06 03:36:21;;;;;;;7.88;6.05;;;11.60;99.90;;;;;;4999117;28;20184;-82
2023/06/06 03:38:47;;;;;;;8.82;6.00;;;11.50;99.90;;;;;;5000133;28;20200;-82
2023/06/06 03:41:12;;;;;;;7.18;5.30;;;11.40;99.90;;;;;;5000439;28;20208;-82
2023/06/06 03:43:38;;;;;;;8.77;5.60;;;11.30;99.90;;;;;;5001516;28;20231;-82
2023/06/06 03:46:04;;;;;;;11.35;7.00;;;11.30;99.90;;;;;;5002207;28;20183;-82
2023/06/06 03:48:30;;;;;;;9.63;5.75;;;11.20;99.90;;;;;;5000866;28;20180;-82
2023/06/06 03:50:55;;;;;;;8.45;6.45;;;11.20;99.90;;;;;;5001530;28;20180;-83
2023/06/06 03:53:21;;;;;;;9.20;6.03;;;11.30;99.90;;;;;;5002881;28;20255;-82
2023/06/06 03:55:47;;;;;;;9.38;5.72;;;11.30;99.90;;;;;;5001287;28;20183;-82
2023/06/06 03:58:13;;;;;;;7.30;5.35;;;11.30;99.90;;;;;;5002300;28;20185;-82
2023/06/06 04:00:39;;;;;;;9.77;5.85;;;11.50;99.90;;;;;;5000650;28;20195;-82
2023/06/06 04:03:06;;;;;;;8.35;6.22;;;11.50;99.90;;;;;;5000835;28;20204;-83
2023/06/06 04:05:32;;;;;;;10.98;6.10;;;11.60;99.90;;;;;;5001374;28;20185;-81
2023/06/06 04:07:59;;;;;;;10.23;6.07;;;11.60;99.90;;;;;;5002831;28;20661;-82
2023/06/06 04:10:25;;;;;;;7.10;5.43;;;11.60;99.90;;;;;;5002466;28;20180;-83
2023/06/06 04:12:51;;;;;;;12.93;6.13;;;11.50;99.90;;;;;;5002022;28;20203;-83
2023/06/06 04:15:17;;;;;;;8.18;5.95;;;11.50;99.90;;;;;;5002299;28;20172;-82
2023/06/06 04:17:43;;;;;;;8.27;5.78;;;11.50;99.90;;;;;;5002240;28;20183;-82
2023/06/06 04:20:09;;;;;;;6.43;5.47;;;11.40;99.90;;;;;;5000555;28;20218;-81
2023/06/06 04:22:36;;;;;;;7.75;5.40;;;11.40;99.90;;;;;;5000896;28;20207;-82
2023/06/06 04:25:02;;;;;;;8.52;5.47;;;11.40;99.90;;;;;;5003329;28;20168;-83
2023/06/06 04:27:28;;;;;;;8.52;5.45;;;11.40;99.90;;;;;;5008595;28;20169;-82
2023/06/06 04:29:57;;;;;;;6.93;5.70;;;11.50;99.90;;;;;;5006266;28;20242;-83
2023/06/06 04:32:23;;;;;;;8.05;5.90;;;11.50;99.90;;;;;;5004282;28;20215;-83
2023/06/06 04:34:51;;;;;;;9.50;6.40;;;11.50;99.90;;;;;;5005312;28;20187;-82
2023/06/06 04:37:18;;;;;;;8.25;5.65;;;11.60;99.90;;;;;;5003862;28;20180;-82
2023/06/06 04:39:44;;;;;;;10.48;6.50;;;11.60;99.90;;;;;;5007674;28;20192;-80
2023/06/06 04:42:12;;;;;;;9.07;6.18;;;11.60;99.90;;;;;;5012619;28;20196;-80
2023/06/06 04:44:41;;;;;;;15.38;6.68;;;11.70;99.90;;;;;;5010204;28;20177;-81
2023/06/06 04:47:10;;;;;;;11.82;6.65;;;11.70;99.90;;;;;;5010296;28;20180;-81
2023/06/06 04:49:38;;;;;;;10.57;6.28;;;11.80;99.90;;;;;;5008678;28;20566;-80
2023/06/06 04:52:08;;;;;;;8.05;6.25;;;12.00;99.90;;;;;;5008535;28;20600;-81
2023/06/06 04:54:38;;;;;;;10.75;6.88;;;12.10;99.90;;;;;;5006969;28;20214;-80
2023/06/06 04:57:06;;;;;;;9.75;6.60;;;12.30;99.90;;;;;;5008507;28;20192;-81
2023/06/06 04:59:37;;;;;;;9.88;7.57;;;12.40;99.90;;;;;;5008511;28;20728;-81
2023/06/06 05:02:03;;;;;;;11.75;8.07;;;12.50;99.90;;;;;;5006982;28;20629;-81
2023/06/06 05:04:32;;;;;;;12.32;7.32;;;12.60;99.90;;;;;;5002558;28;20219;-82
2023/06/06 05:06:59;;;;;;;10.88;8.07;;;12.60;99.90;;;;;;5002203;28;20215;-82
2023/06/06 05:09:26;;;;;;;9.95;7.57;;;12.60;99.90;;;;;;5000654;28;20287;-83
2023/06/06 05:11:54;;;;;;;12.32;8.00;;;12.60;99.90;;;;;;5000450;28;20191;-82
2023/06/06 05:14:23;;;;;;;11.05;7.72;;;12.60;99.90;;;;;;5000153;28;20216;-82
2023/06/06 05:16:51;;;;;;;12.80;8.25;;;12.60;99.90;;;;;;5000408;28;20184;-81
2023/06/06 05:19:17;;;;;;;11.77;8.00;;;12.60;99.90;;;;;;5000423;28;20204;-82
2023/06/06 05:21:43;;;;;;;14.52;8.23;;;12.70;99.90;;;;;;4999924;28;20177;-81
2023/06/06 05:24:09;;;;;;;12.90;8.93;;;12.70;99.90;;;;;;5001446;28;20283;-82
2023/06/06 05:26:35;;;;;;;14.20;8.65;;;12.80;99.90;;;;;;5001288;28;20180;-82
2023/06/06 05:29:01;;;;;;;11.45;8.93;;;12.90;99.90;;;;;;5001768;28;20598;-82
2023/06/06 05:31:26;;;;;;;13.52;9.25;;;13.00;99.90;;;;;;5000868;28;20208;-82
2023/06/06 05:33:53;;;;;;;15.27;9.95;;;13.00;99.90;;;;;;5002162;28;20284;-82
2023/06/06 05:36:19;;;;;;;15.05;9.82;;;13.10;99.90;;;;;;4999176;28;20200;-82
2023/06/06 05:38:46;;;;;;;17.33;10.18;;;13.20;99.90;;;;;;4996643;28;20203;-82
2023/06/06 05:41:12;;;;;;;15.13;9.60;;;13.30;99.90;;;;;;4998237;28;20251;-82
2023/06/06 05:43:38;;;;;;;16.15;9.82;;;13.30;99.90;;;;;;4997966;28;20193;-82
2023/06/06 05:46:04;;;;;;;16.20;10.77;;;13.40;99.90;;;;;;4998649;28;20173;-82
2023/06/06 05:48:30;;;;;;;18.35;11.77;;;13.50;99.90;;;;;;4997317;28;20304;-82
2023/06/06 05:50:56;;;;;;;20.10;11.48;;;13.60;99.90;;;;;;4998202;28;20658;-81
2023/06/06 05:53:23;;;;;;;19.70;10.60;;;13.70;99.90;;;;;;4996964;28;20200;-82
2023/06/06 05:55:49;;;;;;;13.50;9.82;;;13.80;99.90;;;;;;4996975;28;20319;-82
2023/06/06 05:58:15;;;;;;;18.17;10.45;;;13.90;99.90;;;;;;4998066;28;20161;-82
2023/06/06 06:00:41;;;;;;;14.65;10.38;;;14.00;99.90;;;;;;4997591;28;20263;-82
2023/06/06 06:03:08;;;;;;;15.98;10.82;;;14.10;99.90;;;;;;4996262;28;20247;-82
2023/06/06 06:05:35;;;;;;;19.08;10.55;;;14.10;99.90;;;;;;4996074;28;20196;-81
2023/06/06 06:08:01;;;;;;;15.15;9.77;;;14.20;99.90;;;;;;4997416;28;20176;-82
2023/06/06 06:10:29;;;;;;;16.88;11.60;;;14.30;99.90;;;;;;4996306;28;20188;-82
2023/06/06 06:12:55;;;;;;;18.38;10.88;;;14.30;99.90;;;;;;4996449;28;20316;-83
2023/06/06 06:15:21;;;;;;;17.35;10.57;;;14.40;99.90;;;;;;4997154;28;20169;-82
2023/06/06 06:17:48;;;;;;;21.33;11.85;;;14.40;99.90;;;;;;4996510;28;20551;-82
2023/06/06 06:20:16;;;;;;;13.90;9.50;;;14.50;99.90;;;;;;4995946;28;20212;-82
2023/06/06 06:22:43;;;;;;;18.30;11.43;;;14.50;99.90;;;;;;4997060;28;20200;-82
2023/06/06 06:25:13;;;;;;;16.08;11.15;;;14.60;99.90;;;;;;4996960;28;20584;-82
2023/06/06 06:27:45;;;;;;;14.25;10.25;;;14.70;99.90;;;;;;4996860;28;20169;-82
2023/06/06 06:30:12;;;;;;;16.60;10.23;;;14.80;99.90;;;;;;4995739;28;20177;-82
2023/06/06 06:32:40;;;;;;;17.25;10.80;;;14.90;99.90;;;;;;4996252;28;20207;-84
2023/06/06 06:35:06;;;;;;;19.80;10.95;;;15.00;99.90;;;;;;4995464;28;20191;-84
2023/06/06 06:37:37;;;;;;;16.50;10.80;;;15.00;99.90;;;;;;4995247;28;20583;-84
2023/06/06 06:40:10;;;;;;;18.70;10.55;;;15.10;99.90;;;;;;4995495;28;20226;-82
2023/06/06 06:42:40;;;;;;;20.80;10.90;;;15.20;99.90;;;;;;4996593;28;20227;-81
2023/06/06 06:45:12;;;;;;;18.77;10.75;;;15.30;99.90;;;;;;4997158;28;20247;-79
2023/06/06 06:47:38;;;;;;;17.83;10.88;;;15.40;99.90;;;;;;5000951;28;20179;-80
2023/06/06 06:50:05;;;;;;;19.20;10.57;;;15.40;99.90;;;;;;5000569;28;20180;-83
2023/06/06 06:52:35;;;;;;;19.48;11.63;;;15.40;99.90;;;;;;4998956;28;20196;-80
2023/06/06 06:55:03;;;;;;;19.77;11.38;;;15.40;99.90;;;;;;5002795;28;20180;-83
2023/06/06 06:57:29;;;;;;;17.05;10.50;;;15.40;99.90;;;;;;4997062;28;20169;-80
2023/06/06 06:59:56;;;;;;;19.60;10.88;;;15.40;99.90;;;;;;4995807;28;20689;-83
2023/06/06 07:02:27;;;;;;;17.90;11.35;;;15.50;99.90;;;;;;4997038;28;20204;-82
2023/06/06 07:04:59;;;;;;;17.83;11.20;;;15.60;99.90;;;;;;4997456;28;20181;-83
2023/06/06 07:07:25;;;;;;;19.27;11.95;;;15.70;99.90;;;;;;4996455;28;20188;-80
2023/06/06 07:09:51;;;;;;;19.85;11.57;;;15.70;99.90;;;;;;4996045;28;20183;-79
2023/06/06 07:12:17;;;;;;;23.85;11.27;;;15.70;99.90;;;;;;4996299;28;20223;-80
2023/06/06 07:14:43;;;;;;;15.32;10.88;;;15.80;99.90;;;;;;4997060;28;20645;-83
2023/06/06 07:17:09;;;;;;;16.70;10.20;;;15.90;99.90;;;;;;4996094;28;20219;-83
2023/06/06 07:19:36;;;;;;;16.40;10.30;;;16.00;99.90;;;;;;4996990;28;20768;-83
2023/06/06 07:22:05;;;;;;;17.95;10.50;;;16.10;99.90;;;;;;4996761;28;20176;-84
2023/06/06 07:24:32;;;;;;;14.93;11.05;;;16.20;99.90;;;;;;4996789;28;20165;-83
2023/06/06 07:26:59;;;;;;;20.30;11.65;;;16.20;99.90;;;;;;4996487;28;20219;-84
2023/06/06 07:29:26;;;;;;;16.10;10.40;;;16.30;99.90;;;;;;4995205;28;20238;-84
2023/06/06 07:31:54;;;;;;;18.35;11.60;;;16.40;99.90;;;;;;4996787;28;20641;-82
2023/06/06 07:34:19;;;;;;;19.02;11.38;;;16.40;99.90;;;;;;4996498;28;20188;-83
2023/06/06 07:36:45;;;;;;;24.23;11.98;;;16.40;99.90;;;;;;4995463;28;20192;-83
2023/06/06 07:39:11;;;;;;;19.75;12.20;;;16.50;99.90;;;;;;4995247;28;20681;-83
2023/06/06 07:41:39;;;;;;;16.95;10.23;;;16.40;99.90;;;;;;4996770;28;20172;-83
2023/06/06 07:44:05;;;;;;;16.85;12.20;;;16.50;99.90;;;;;;4993951;28;20271;-83
2023/06/06 07:46:30;;;;;;;18.77;11.00;;;16.50;99.90;;;;;;4995425;28;20212;-83
2023/06/06 07:48:58;;;;;;;17.20;11.55;;;16.60;99.90;;;;;;4994014;28;20212;-83
2023/06/06 07:51:25;;;;;;;18.70;12.10;;;16.60;99.90;;;;;;4994025;28;20184;-79
2023/06/06 07:53:51;;;;;;;17.40;11.05;;;16.70;99.90;;;;;;4995660;28;20271;-80
2023/06/06 07:56:18;;;;;;;19.35;12.35;;;16.80;99.90;;;;;;4994143;28;20227;-81
2023/06/06 07:58:52;;;;;;;18.52;11.45;;;16.90;99.90;;;;;;4995057;28;20291;-82
2023/06/06 08:01:21;;;;;;;19.23;11.25;;;16.90;99.90;;;;;;4993476;28;20203;-81
2023/06/06 08:03:50;;;;;;;17.42;11.80;;;17.00;99.90;;;;;;4994832;28;20219;-82
2023/06/06 08:06:26;;;;;;;22.58;11.93;;;16.90;99.90;;;;;;4994012;28;20710;-81
2023/06/06 08:08:52;;;;;;;17.25;11.77;;;17.00;99.90;;;;;;4995271;28;20211;-81
2023/06/06 08:11:19;;;;;;;18.80;10.90;;;17.10;99.90;;;;;;4994991;28;20577;-79
2023/06/06 08:13:45;;;;;;;21.73;12.45;;;17.20;99.90;;;;;;4994891;28;20196;-79
2023/06/06 08:16:11;;;;;;;17.42;10.77;;;17.30;99.90;;;;;;4995001;28;20226;-79
2023/06/06 08:18:39;;;;;;;21.83;12.07;;;17.40;99.90;;;;;;4995154;28;20196;-79
2023/06/06 08:21:05;;;;;;;17.10;11.23;;;17.60;99.90;;;;;;4993074;28;20315;-79
2023/06/06 08:23:31;;;;;;;16.88;10.95;;;17.70;99.90;;;;;;4993617;28;20254;-79
2023/06/06 08:25:57;;;;;;;20.15;11.15;;;17.70;99.90;;;;;;4995030;28;20169;-79
2023/06/06 08:28:23;;;;;;;20.05;11.45;;;17.90;99.90;;;;;;4993710;28;20177;-79
2023/06/06 08:30:53;;;;;;;16.45;10.90;;;18.00;99.90;;;;;;4993343;28;20176;-78
2023/06/06 08:33:19;;;;;;;20.77;11.45;;;18.30;99.90;;;;;;4994576;28;20211;-78
2023/06/06 08:35:46;;;;;;;16.25;10.65;;;18.50;99.90;;;;;;4992942;28;20541;-79
2023/06/06 08:38:11;;;;;;;24.20;11.27;;;18.70;99.90;;;;;;4994494;28;20169;-78
2023/06/06 08:40:38;;;;;;;20.33;11.02;;;18.80;99.90;;;;;;4993109;28;20294;-78
2023/06/06 08:43:06;;;;;;;18.85;10.45;;;18.90;99.90;;;;;;4993487;28;20268;-79
2023/06/06 08:45:32;;;;;;;23.38;11.65;;;19.10;99.90;;;;;;4995238;28;20173;-78
2023/06/06 08:48:02;;;;;;;16.00;10.15;;;19.30;99.90;;;;;;4993136;28;20267;-78
2023/06/06 08:50:30;;;;;;;17.73;10.73;;;19.40;99.90;;;;;;4994510;28;20169;-79
2023/06/06 08:52:56;;;;;;;20.20;10.32;;;19.60;99.90;;;;;;4993266;28;20208;-79
2023/06/06 08:55:22;;;;;;;19.13;10.57;;;19.70;99.90;;;;;;4994729;28;20629;-79
2023/06/06 08:57:50;;;;;;;16.77;9.90;;;19.90;99.90;;;;;;4994816;28;20259;-79
2023/06/06 09:00:21;;;;;;;16.52;9.88;;;20.20;99.90;;;;;;4994517;28;20223;-79
2023/06/06 09:02:47;;;;;;;17.85;9.95;;;20.30;99.90;;;;;;4994224;28;20624;-78
2023/06/06 09:05:16;;;;;;;14.52;9.73;;;20.50;99.90;;;;;;4993887;28;20181;-78
2023/06/06 09:07:42;;;;;;;15.77;9.63;;;20.60;8.80;;;;;;4993563;28;20164;-78
2023/06/06 09:10:08;;;;;;;15.23;9.48;;;20.50;99.90;;;;;;4992681;28;20542;-78
2023/06/06 09:12:41;;;;;;;21.42;9.77;;;20.70;99.90;;;;;;4995065;28;20239;-78
2023/06/06 09:15:08;;;;;;;12.60;8.98;;;21.00;99.90;;;;;;4996392;28;20176;-77
2023/06/06 09:17:37;;;;;;;15.07;10.90;;;21.20;99.90;;;;;;4997440;28;20177;-77
2023/06/06 09:20:14;;;;;;;17.92;10.15;;;21.10;99.90;;;;;;4996466;28;20204;-79
2023/06/06 09:22:42;;;;;;;17.85;10.02;;;21.20;99.90;;;;;;4996410;28;20232;-78
2023/06/06 09:25:17;;;;;;;17.02;9.55;;;21.30;99.90;;;;;;4998437;28;20193;-79
2023/06/06 09:27:43;;;;;;;15.82;10.00;;;21.40;99.90;;;;;;4997095;28;20190;-78
2023/06/06 09:30:27;;;;;;;23.27;10.80;;;21.70;1.00;;;;;;4997435;28;20184;-79
2023/06/06 09:32:58;;;;;;;13.90;9.35;;;21.80;99.90;;;;;;4999195;28;20317;-79
2023/06/06 09:35:28;;;;;;;16.13;9.25;;;21.80;1.00;;;;;;4998320;28;20235;-79
2023/06/06 09:37:54;;;;;;;17.92;9.18;;;22.00;1.00;;;;;;4998921;28;20169;-79
2023/06/06 09:40:20;;;;;;;15.73;7.75;;;22.20;1.00;;;;;;4997849;28;20211;-79
2023/06/06 09:42:48;;;;;;;15.73;8.98;;;22.40;1.00;;;;;;4998285;28;20203;-79
2023/06/06 09:45:19;;;;;;;14.32;9.65;;;22.70;1.00;;;;;;4999370;28;20222;-79
2023/06/06 09:47:48;;;;;;;14.63;8.65;;;22.90;1.00;;;;;;4999990;28;20223;-79
2023/06/06 09:50:16;;;;;;;14.30;10.57;;;22.80;1.00;;;;;;4999949;28;20192;-79
2023/06/06 09:52:43;;;;;;;16.55;9.10;;;22.40;99.90;;;;;;4999519;28;20219;-79
2023/06/06 09:55:13;;;;;;;12.32;8.57;;;22.20;1.00;;;;;;4998341;28;20203;-78
2023/06/06 09:57:40;;;;;;;11.40;8.15;;;21.70;1.00;;;;;;4999004;28;20173;-79
2023/06/06 10:00:15;;;;;;;14.35;7.60;;;21.40;1.00;;;;;;4997379;28;20204;-79
2023/06/06 10:02:47;;;;;;;12.82;7.82;;;21.30;99.90;;;;;;4997714;28;20212;-79
2023/06/06 10:05:15;;;;;;;13.75;8.07;;;21.50;99.90;;;;;;4997494;28;20279;-80
2023/06/06 10:07:46;;;;;;;11.18;7.53;;;21.60;1.00;;;;;;4997657;28;20181;-80
2023/06/06 10:10:14;;;;;;;13.52;7.53;;;21.80;1.00;;;;;;4997387;28;20192;-79
2023/06/06 10:12:40;;;;;;;15.77;8.63;;;22.10;1.00;;;;;;4997800;28;20197;-79
2023/06/06 10:15:11;;;;;;;16.58;8.55;;;22.40;99.90;;;;;;4997698;28;20199;-79
2023/06/06 10:17:39;;;;;;;15.25;9.07;;;22.70;99.90;;;;;;4997910;28;20268;-79
2023/06/06 10:20:06;;;;;;;13.45;7.85;;;22.90;99.90;;;;;;4998596;28;20291;-79
2023/06/06 10:22:36;;;;;;;15.55;8.30;;;23.00;99.90;;;;;;4998377;28;20288;-80
2023/06/06 10:25:04;;;;;;;11.00;6.72;;;23.10;1.00;;;;;;4997867;28;20747;-81
2023/06/06 10:27:39;;;;;;;14.55;6.95;;;23.00;1.00;;;;;;4999065;28;20208;-80
2023/06/06 10:30:27;;;;;;;13.05;7.80;;;23.10;1.00;;;;;;4997080;28;20219;-79
2023/06/06 10:33:02;;;;;;;12.43;7.05;;;23.30;49.30;;;;;;4997915;28;20204;-79
2023/06/06 10:35:31;;;;;;;10.90;6.93;;;23.10;99.90;;;;;;4995919;28;20628;-79
2023/06/06 10:38:03;;;;;;;15.30;8.27;;;23.10;99.90;;;;;;4996471;28;20181;-79
2023/06/06 10:40:53;;;;;;;13.90;9.15;;;23.20;99.90;;;;;;4996925;28;20754;-79
2023/06/06 10:43:34;;;;;;;16.23;8.40;;;23.40;99.90;;;;;;4997675;28;20699;-80
2023/06/06 10:46:02;;;;;;;14.00;8.10;;;23.40;1.00;;;;;;4997878;28;20165;-79
2023/06/06 10:48:54;;;;;;;15.77;8.32;;;23.10;99.90;;;;;;4996800;28;20596;-79
2023/06/06 10:51:31;;;;;;;14.25;8.70;;;23.00;99.90;;;;;;4997332;28;20187;-79
2023/06/06 10:54:20;;;;;;;14.18;8.30;;;23.00;99.90;;;;;;4996907;28;20227;-79
2023/06/06 10:56:54;;;;;;;13.57;7.38;;;23.00;99.90;;;;;;4995199;28;20171;-79
2023/06/06 10:59:27;;;;;;;12.55;6.70;;;23.10;99.90;;;;;;4994554;28;20208;-79
2023/06/06 11:01:54;;;;;;;12.82;7.82;;;23.30;99.90;;;;;;4996356;28;20176;-80
2023/06/06 11:04:22;;;;;;;14.15;7.40;;;23.40;99.90;;;;;;4996259;28;20152;-79
2023/06/06 11:06:51;;;;;;;14.70;8.15;;;23.70;99.90;;;;;;4995425;28;20642;-79
2023/06/06 11:09:22;;;;;;;10.75;6.70;;;23.60;1.00;;;;;;4995796;28;20233;-79
2023/06/06 11:11:50;;;;;;;12.18;6.68;;;23.70;99.90;;;;;;4994811;28;20181;-80
2023/06/06 11:14:21;;;;;;;13.73;7.40;;;23.80;99.90;;;;;;4995689;28;20199;-79
2023/06/06 11:16:47;;;;;;;11.32;7.53;;;23.80;55.50;;;;;;4994935;28;20238;-79
2023/06/06 11:19:15;;;;;;;10.25;6.93;;;23.80;1.00;;;;;;4995188;28;20204;-79
2023/06/06 11:21:42;;;;;;;7.97;5.82;;;24.00;1.00;;;;;;4999010;28;20677;-80
2023/06/06 11:24:10;;;;;;;7.93;5.22;;;24.30;1.00;;;;;;4997603;28;20196;-80
2023/06/06 11:26:41;;;;;;;11.63;5.75;;;24.60;1.00;;;;;;4997913;28;20176;-80
2023/06/06 11:29:08;;;;;;;12.63;5.47;;;25.00;1.00;;;;;;4998613;28;20638;-80
2023/06/06 11:31:35;;;;;;;11.65;7.00;;;25.20;1.00;;;;;;4998687;28;20176;-80
2023/06/06 11:34:14;;;;;;;9.50;5.45;;;25.30;99.90;;;;;;4997435;28;20208;-80
2023/06/06 11:36:51;;;;;;;9.77;5.13;;;25.40;96.40;;;;;;4996772;28;20167;-80
2023/06/06 11:39:20;;;;;;;8.18;4.85;;;25.50;1.00;;;;;;4997725;28;20183;-80
2023/06/06 11:41:49;;;;;;;10.05;5.57;;;25.60;1.00;;;;;;4998150;28;20230;-80
2023/06/06 11:44:16;;;;;;;9.73;4.80;;;25.60;99.90;;;;;;4995859;28;20203;-79
2023/06/06 11:46:48;;;;;;;10.10;5.72;;;25.60;99.90;;;;;;4997854;28;20169;-81
2023/06/06 11:49:15;;;;;;;12.77;6.10;;;25.60;88.40;;;;;;4996453;28;20255;-80
2023/06/06 11:51:58;;;;;;;9.60;5.32;;;25.80;99.90;;;;;;4997004;28;20181;-80
2023/06/06 11:54:26;;;;;;;7.18;5.10;;;25.90;99.90;;;;;;4997074;28;20592;-80
2023/06/06 11:56:52;;;;;;;9.57;4.93;;;25.60;99.90;;;;;;4996535;28;20255;-79
2023/06/06 11:59:19;;;;;;;8.30;4.88;;;25.50;1.00;;;;;;4994114;28;20231;-79
2023/06/06 12:01:59;;;;;;;7.20;4.72;;;25.60;49.40;;;;;;4994768;28;20191;-79
2023/06/06 12:04:26;;;;;;;8.10;5.45;;;25.60;1.00;;;;;;4995287;28;20559;-80
2023/06/06 12:06:53;;;;;;;9.15;5.75;;;25.30;1.00;;;;;;4995077;28;20314;-80
2023/06/06 12:09:20;;;;;;;7.45;5.38;;;25.20;1.00;;;;;;4995942;28;20716;-80
2023/06/06 12:11:54;;;;;;;9.32;4.65;;;25.00;1.00;;;;;;4996240;28;20184;-80
2023/06/06 12:14:25;;;;;;;8.77;4.53;;;24.80;1.00;;;;;;4994861;28;20180;-80
2023/06/06 12:16:51;;;;;;;7.63;4.75;;;24.90;99.90;;;;;;4996897;28;20731;-80
2023/06/06 12:19:18;;;;;;;5.07;4.30;;;25.20;99.90;;;;;;4996486;28;20602;-80
2023/06/06 12:21:48;;;;;;;7.50;5.00;;;25.40;1.00;;;;;;4997267;28;20704;-82
2023/06/06 12:24:25;;;;;;;7.07;4.70;;;25.50;99.90;;;;;;4998074;28;20275;-83
2023/06/06 12:27:05;;;;;;;7.90;4.30;;;25.50;13.90;;;;;;4994969;28;20177;-83
2023/06/06 12:29:35;;;;;;;9.30;4.20;;;25.70;2.50;;;;;;4997145;28;20182;-83
2023/06/06 12:32:22;;;;;;;9.48;4.53;;;25.70;1.00;;;;;;4998298;28;20553;-80
2023/06/06 12:34:59;;;;;;;6.38;4.68;;;25.60;1.00;;;;;;4995189;28;20566;-78
2023/06/06 12:37:45;;;;;;;5.45;4.05;;;25.60;1.00;;;;;;4994585;28;20238;-82
2023/06/06 12:40:21;;;;;;;7.28;4.47;;;25.50;1.00;;;;;;4995222;28;20196;-83
2023/06/06 12:42:51;;;;;;;8.60;4.38;;;25.70;1.00;;;;;;4994848;28;20243;-82
2023/06/06 12:45:18;;;;;;;8.43;4.68;;;25.60;1.00;;;;;;4996367;28;20177;-82
2023/06/06 12:47:44;;;;;;;9.60;4.90;;;25.60;1.00;;;;;;4997403;28;20176;-82